Time;durP1;ratioP1;P1;durP2;ratioP2;P2;SDS_P1;SDS_P2;PMS_P1;PMS_P2;Temp;Humidity;BMP_temperature;BMP_pressure;BME280_temperature;BME280_humidity;BME280_pressure;Samples;Min_cycle;Max_cycle;Signal;HPM_P1;HPM_P2
2022/11/20 00:01:21;;;;;;;16.73;8.07;;;6.30;99.90;;;;;;5097812;28;20140;-59
2022/11/20 00:03:48;;;;;;;20.90;8.35;;;6.30;99.90;;;;;;5089348;28;20052;-59
2022/11/20 00:06:16;;;;;;;26.20;9.43;;;6.30;99.90;;;;;;5103935;28;20494;-58
2022/11/20 00:08:43;;;;;;;24.00;9.07;;;6.30;99.90;;;;;;5089021;28;20040;-58
2022/11/20 00:11:13;;;;;;;21.42;8.73;;;6.30;99.90;;;;;;5096011;28;20050;-59
2022/11/20 00:13:43;;;;;;;21.98;8.52;;;6.20;99.90;;;;;;5109493;28;20134;-59
2022/11/20 00:16:10;;;;;;;33.13;12.90;;;6.30;99.90;;;;;;5078087;28;20055;-58
2022/11/20 00:18:37;;;;;;;26.48;11.43;;;6.20;99.90;;;;;;5091551;28;20086;-60
2022/11/20 00:21:05;;;;;;;36.30;11.82;;;6.30;99.90;;;;;;5097351;28;20067;-59
2022/11/20 00:23:32;;;;;;;28.73;11.50;;;6.30;99.90;;;;;;5109165;28;20043;-58
2022/11/20 00:26:03;;;;;;;36.63;14.52;;;6.30;99.90;;;;;;5098917;28;20513;-60
2022/11/20 00:28:30;;;;;;;33.45;13.90;;;6.30;99.90;;;;;;5107297;28;20048;-57
2022/11/20 00:31:03;;;;;;;28.63;13.27;;;6.30;99.90;;;;;;5100515;28;20044;-58
2022/11/20 00:33:30;;;;;;;27.85;13.55;;;6.30;99.90;;;;;;5087672;28;20047;-59
2022/11/20 00:36:03;;;;;;;35.85;13.45;;;6.30;99.90;;;;;;5102075;28;20044;-59
2022/11/20 00:38:33;;;;;;;41.05;16.73;;;6.30;99.90;;;;;;5104800;28;20204;-59
2022/11/20 00:41:01;;;;;;;38.20;16.25;;;6.30;99.90;;;;;;5103086;28;20075;-57
2022/11/20 00:43:27;;;;;;;39.35;16.60;;;6.30;99.90;;;;;;5084823;28;20050;-56
2022/11/20 00:46:01;;;;;;;34.53;15.57;;;6.30;99.90;;;;;;5105213;28;20058;-58
2022/11/20 00:48:28;;;;;;;38.78;14.13;;;6.30;99.90;;;;;;5101161;28;20050;-59
2022/11/20 00:50:55;;;;;;;29.02;11.82;;;6.30;99.90;;;;;;5104315;28;20043;-59
2022/11/20 00:53:22;;;;;;;27.45;11.75;;;6.40;99.90;;;;;;5099190;28;20079;-59
2022/11/20 00:55:56;;;;;;;26.17;11.05;;;6.40;99.90;;;;;;5091350;28;20040;-58
2022/11/20 00:58:22;;;;;;;;;;;6.40;99.90;;;;;;5077503;28;20040;-57
2022/11/20 01:00:49;;;;;;;26.17;9.63;;;6.50;99.90;;;;;;5089854;28;20007;-57
2022/11/20 01:03:17;;;;;;;26.88;9.52;;;6.50;99.90;;;;;;5097261;28;20073;-55
2022/11/20 01:05:51;;;;;;;29.85;11.95;;;6.50;99.90;;;;;;5091215;28;20055;-59
2022/11/20 01:08:17;;;;;;;15.80;7.30;;;6.50;99.90;;;;;;5099294;28;20044;-59
2022/11/20 01:10:44;;;;;;;30.98;9.93;;;6.50;99.90;;;;;;5088085;28;20080;-59
2022/11/20 01:16:02;;;;;;;23.83;8.75;;;6.40;99.90;;;;;;5108674;28;20058;-59
2022/11/20 01:18:29;;;;;;;24.00;8.20;;;6.40;99.90;;;;;;5095799;28;20483;-59
2022/11/20 01:21:06;;;;;;;30.45;11.05;;;6.40;99.90;;;;;;5090798;28;20074;-58
2022/11/20 01:23:38;;;;;;;28.42;9.93;;;6.40;99.90;;;;;;5095269;28;20050;-58
2022/11/20 01:26:12;;;;;;;21.35;8.30;;;6.50;99.90;;;;;;5108655;28;20516;-57
2022/11/20 01:28:39;;;;;;;;;;;6.50;99.90;;;;;;5095991;28;20110;-59
2022/11/20 01:31:24;;;;;;;21.67;5.85;;;6.50;99.90;;;;;;5090527;28;20366;-59
2022/11/20 01:33:52;;;;;;;16.98;6.28;;;6.50;99.90;;;;;;5095257;28;20044;-59
2022/11/20 01:36:20;;;;;;;9.98;5.38;;;6.60;99.90;;;;;;5090462;28;20043;-59
2022/11/20 01:38:47;;;;;;;16.63;5.10;;;6.60;99.90;;;;;;4726074;28;10000339;-59
2022/11/20 01:43:20;;;;;;;10.23;4.28;;;6.70;99.90;;;;;;5087965;28;20055;-58
2022/11/20 01:44:01;;;;;;;12.05;4.18;;;6.70;99.90;;;;;;5101924;28;20069;-59
2022/11/20 01:46:28;;;;;;;15.63;4.45;;;6.70;99.90;;;;;;5070086;28;20048;-59
2022/11/20 01:49:03;;;;;;;11.55;4.10;;;6.70;99.90;;;;;;5096023;28;20419;-58
2022/11/20 01:51:40;;;;;;;12.00;4.25;;;6.70;99.90;;;;;;5086855;28;20052;-58
2022/11/20 01:54:11;;;;;;;7.53;4.13;;;6.80;99.90;;;;;;5073894;28;20055;-58
2022/11/20 01:56:42;;;;;;;8.82;3.40;;;6.80;99.90;;;;;;5089867;28;20044;-58
2022/11/20 01:59:09;;;;;;;19.02;6.55;;;6.80;99.90;;;;;;5064646;28;20166;-55
2022/11/20 02:01:36;;;;;;;9.30;2.53;;;6.80;99.90;;;;;;5106476;28;20050;-59
2022/11/20 02:04:03;;;;;;;9.40;2.60;;;6.80;99.90;;;;;;5103761;28;20051;-59
2022/11/20 02:06:39;;;;;;;7.60;3.22;;;6.80;99.90;;;;;;5092260;28;20055;-59
2022/11/20 02:09:06;;;;;;;10.73;2.67;;;6.90;99.90;;;;;;5075407;28;20135;-58
2022/11/20 02:11:33;;;;;;;11.93;2.53;;;6.90;99.90;;;;;;5085131;28;20047;-59
2022/11/20 02:14:00;;;;;;;9.65;3.08;;;6.90;99.90;;;;;;5103592;28;20135;-58
2022/11/20 02:16:45;;;;;;;6.85;2.83;;;6.90;99.90;;;;;;5077279;28;20051;-59
2022/11/20 02:19:29;;;;;;;8.45;3.00;;;7.00;99.90;;;;;;5091717;28;20047;-56
2022/11/20 02:22:29;;;;;;;8.30;2.67;;;7.00;99.90;;;;;;5106665;28;20055;-58
2022/11/20 02:24:55;;;;;;;14.60;2.95;;;6.90;99.90;;;;;;5083063;28;20040;-58
2022/11/20 02:27:22;;;;;;;14.13;2.95;;;6.90;99.90;;;;;;5057919;28;20052;-58
2022/11/20 02:30:03;;;;;;;5.97;2.30;;;6.90;99.90;;;;;;5085752;28;20042;-58
2022/11/20 02:32:34;;;;;;;14.05;4.93;;;6.90;99.90;;;;;;5073990;28;20438;-57
2022/11/20 02:35:31;;;;;;;7.68;2.80;;;7.00;99.90;;;;;;5106949;28;20502;-58
2022/11/20 02:38:01;;;;;;;8.68;2.88;;;7.00;99.90;;;;;;5091444;28;20051;-59
2022/11/20 02:40:28;;;;;;;13.13;3.65;;;7.10;99.90;;;;;;5077380;28;20052;-59
2022/11/20 02:42:55;;;;;;;8.18;2.50;;;7.10;99.90;;;;;;5109228;28;20130;-60
2022/11/20 02:45:22;;;;;;;13.15;2.88;;;7.10;99.90;;;;;;5106785;28;20044;-59
2022/11/20 02:47:50;;;;;;;9.93;2.65;;;7.20;99.90;;;;;;5095631;28;20058;-59
2022/11/20 02:50:17;;;;;;;10.85;2.88;;;7.20;99.90;;;;;;5096460;28;20137;-59
2022/11/20 02:52:43;;;;;;;12.20;3.35;;;7.20;99.90;;;;;;5097646;28;20054;-58
2022/11/20 02:55:10;;;;;;;9.80;2.65;;;7.20;99.90;;;;;;5095063;28;20035;-60
2022/11/20 02:57:37;;;;;;;12.95;2.75;;;7.30;99.90;;;;;;5093302;28;20047;-59
2022/11/20 03:00:04;;;;;;;7.22;2.55;;;7.20;99.90;;;;;;5094643;28;20039;-58
2022/11/20 03:02:31;;;;;;;14.00;2.85;;;7.20;99.90;;;;;;5082077;28;20048;-59
2022/11/20 03:04:58;;;;;;;8.68;2.83;;;7.30;99.90;;;;;;5109147;28;20134;-60
2022/11/20 03:07:25;;;;;;;5.53;2.20;;;7.30;99.90;;;;;;5099617;28;20054;-57
2022/11/20 03:09:52;;;;;;;7.97;2.72;;;7.20;99.90;;;;;;5110407;28;20058;-59
2022/11/20 03:12:19;;;;;;;6.03;2.15;;;7.30;99.90;;;;;;5102995;28;20537;-58
2022/11/20 03:14:45;;;;;;;7.25;2.05;;;7.30;99.90;;;;;;5090716;28;20058;-59
2022/11/20 03:17:18;;;;;;;5.57;2.10;;;7.30;99.90;;;;;;5097435;28;20077;-57
2022/11/20 03:19:45;;;;;;;4.85;1.50;;;7.30;99.90;;;;;;5110709;28;20138;-59
2022/11/20 03:22:12;;;;;;;15.00;2.42;;;7.30;99.90;;;;;;5105699;28;20043;-59
2022/11/20 03:24:38;;;;;;;9.70;2.33;;;7.30;99.90;;;;;;5090368;28;20070;-59
2022/11/20 03:27:05;;;;;;;13.40;2.97;;;7.30;99.90;;;;;;5100724;28;20450;-58
2022/11/20 03:29:32;;;;;;;5.97;1.88;;;7.30;99.90;;;;;;5092061;28;20123;-58
2022/11/20 03:31:59;;;;;;;3.83;1.15;;;7.30;99.90;;;;;;5097466;28;20497;-60
2022/11/20 03:34:25;;;;;;;6.68;0.98;;;7.30;99.90;;;;;;5094521;28;20051;-60
2022/11/20 03:36:52;;;;;;;5.00;1.17;;;7.40;99.90;;;;;;5096047;28;20043;-59
2022/11/20 03:39:19;;;;;;;5.05;1.27;;;7.40;99.90;;;;;;5096553;28;20047;-56
2022/11/20 03:41:46;;;;;;;2.10;1.00;;;7.40;99.90;;;;;;5076061;28;20039;-60
2022/11/20 03:44:13;;;;;;;6.32;1.33;;;7.50;99.90;;;;;;5101569;28;20048;-59
2022/11/20 03:46:40;;;;;;;6.45;1.15;;;7.40;99.90;;;;;;5106054;28;20214;-59
2022/11/20 03:49:06;;;;;;;5.30;1.33;;;7.50;99.90;;;;;;5099177;28;20048;-59
2022/11/20 03:51:35;;;;;;;8.07;1.40;;;7.40;99.90;;;;;;5108164;28;20044;-59
2022/11/20 03:54:08;;;;;;;6.28;1.83;;;7.50;99.90;;;;;;5101252;28;20044;-60
2022/11/20 03:56:36;;;;;;;4.25;1.00;;;7.50;99.90;;;;;;5090537;28;20078;-59
2022/11/20 03:59:03;;;;;;;4.57;1.15;;;7.60;99.90;;;;;;5083246;28;20055;-59
2022/11/20 04:01:35;;;;;;;6.05;1.98;;;7.60;99.90;;;;;;5089701;28;20055;-60
2022/11/20 04:04:02;;;;;;;6.18;1.60;;;7.60;99.90;;;;;;5097564;28;20215;-58
2022/11/20 04:06:30;;;;;;;2.47;1.05;;;7.60;99.90;;;;;;5109670;28;20143;-60
2022/11/20 04:08:57;;;;;;;9.48;1.33;;;7.70;99.90;;;;;;5103381;28;20062;-58
2022/11/20 04:11:25;;;;;;;8.00;1.85;;;7.70;99.90;;;;;;5089552;28;20592;-59
2022/11/20 04:14:00;;;;;;;6.38;1.80;;;7.70;99.90;;;;;;5093388;28;20050;-61
2022/11/20 04:16:26;;;;;;;;;;;7.70;99.90;;;;;;5076106;28;20052;-57
2022/11/20 04:18:54;;;;;;;4.82;1.10;;;7.70;99.90;;;;;;5086975;28;19920;-61
2022/11/20 04:21:21;;;;;;;9.35;1.67;;;7.60;99.90;;;;;;5090334;28;20070;-59
2022/11/20 04:23:48;;;;;;;6.07;1.20;;;7.70;99.90;;;;;;5098545;28;20050;-57
2022/11/20 04:26:15;;;;;;;5.00;1.75;;;7.70;99.90;;;;;;5092590;28;20075;-57
2022/11/20 04:28:41;;;;;;;6.65;2.15;;;7.70;99.90;;;;;;5095797;28;20043;-58
2022/11/20 04:31:19;;;;;;;5.55;1.70;;;7.70;99.90;;;;;;5094696;28;20048;-61
2022/11/20 04:33:46;;;;;;;7.57;1.73;;;7.70;99.90;;;;;;5095162;28;20067;-58
2022/11/20 04:36:18;;;;;;;17.90;3.80;;;7.70;99.90;;;;;;5095977;28;20078;-59
2022/11/20 04:38:45;;;;;;;5.57;1.83;;;7.70;99.90;;;;;;5093425;28;20492;-58
2022/11/20 04:41:16;;;;;;;4.55;1.75;;;7.70;99.90;;;;;;5097512;28;20120;-56
2022/11/20 04:43:47;;;;;;;3.15;1.45;;;7.70;99.90;;;;;;5093050;28;20050;-60
2022/11/20 04:46:14;;;;;;;16.25;4.53;;;7.70;99.90;;;;;;5099981;28;20053;-58
2022/11/20 04:48:44;;;;;;;3.85;1.58;;;7.80;99.90;;;;;;5105482;28;20040;-58
2022/11/20 04:51:11;;;;;;;4.65;1.85;;;7.70;99.90;;;;;;5100498;28;20130;-57
2022/11/20 04:53:37;;;;;;;7.85;3.05;;;7.80;99.90;;;;;;5056223;28;20046;-56
2022/11/20 04:56:06;;;;;;;10.48;2.00;;;7.80;99.90;;;;;;5100235;28;20044;-59
2022/11/20 04:58:33;;;;;;;6.55;1.75;;;7.80;99.90;;;;;;5104388;28;20063;-57
2022/11/20 05:01:16;;;;;;;5.45;1.73;;;7.90;99.90;;;;;;5097251;28;20593;-57
2022/11/20 05:03:43;;;;;;;6.68;1.60;;;7.90;99.90;;;;;;5107884;28;20565;-56
2022/11/20 05:06:14;;;;;;;7.10;2.15;;;7.90;99.90;;;;;;5096989;28;20123;-57
2022/11/20 05:08:41;;;;;;;2.47;1.35;;;7.90;99.90;;;;;;5109074;28;20569;-58
2022/11/20 05:11:10;;;;;;;2.63;1.30;;;7.90;99.90;;;;;;5077927;28;20040;-58
2022/11/20 05:13:37;;;;;;;6.30;1.60;;;7.90;99.90;;;;;;5090948;28;20134;-60
2022/11/20 05:16:05;;;;;;;5.18;1.90;;;7.90;99.90;;;;;;5095668;28;20099;-61
2022/11/20 05:18:33;;;;;;;6.63;1.92;;;8.00;99.90;;;;;;5109021;28;20043;-60
2022/11/20 05:21:00;;;;;;;4.85;1.52;;;7.90;99.90;;;;;;5096789;28;20106;-60
2022/11/20 05:23:27;;;;;;;9.70;1.80;;;7.90;99.90;;;;;;5108273;28;20066;-59
2022/11/20 05:25:55;;;;;;;3.40;1.45;;;7.90;99.90;;;;;;5098791;28;20048;-59
2022/11/20 05:28:25;;;;;;;10.18;2.35;;;7.90;99.90;;;;;;5089050;28;20138;-59
2022/11/20 05:30:52;;;;;;;8.35;1.70;;;7.90;99.90;;;;;;5101064;28;20047;-60
2022/11/20 05:33:19;;;;;;;4.50;1.70;;;7.90;99.90;;;;;;5104104;28;20086;-59
2022/11/20 05:35:45;;;;;;;5.25;1.88;;;7.80;99.90;;;;;;5103048;28;20040;-59
2022/11/20 05:38:12;;;;;;;10.02;1.48;;;7.90;99.90;;;;;;5101742;28;20058;-58
2022/11/20 05:40:39;;;;;;;6.22;1.85;;;7.90;99.90;;;;;;5105175;28;20040;-59
2022/11/20 05:43:06;;;;;;;7.93;1.63;;;7.90;99.90;;;;;;5087826;28;20526;-59
2022/11/20 05:45:32;;;;;;;6.50;1.48;;;7.90;99.90;;;;;;5091713;28;20062;-60
2022/11/20 05:48:02;;;;;;;8.45;2.17;;;7.90;99.90;;;;;;5096804;28;20039;-58
2022/11/20 05:50:29;;;;;;;6.10;1.65;;;7.90;99.90;;;;;;5106949;28;20058;-59
2022/11/20 05:52:59;;;;;;;4.88;1.83;;;7.90;99.90;;;;;;5079103;28;20058;-57
2022/11/20 05:55:26;;;;;;;7.47;1.60;;;7.80;99.90;;;;;;5090545;28;20086;-58
2022/11/20 05:57:54;;;;;;;6.60;1.98;;;7.80;99.90;;;;;;5101974;28;20040;-59
2022/11/20 06:00:21;;;;;;;6.20;2.03;;;7.80;99.90;;;;;;5074010;28;20083;-57
2022/11/20 06:02:48;;;;;;;5.28;1.70;;;7.80;99.90;;;;;;5104575;28;20051;-60
2022/11/20 06:05:15;;;;;;;10.18;1.70;;;7.90;99.90;;;;;;5091538;28;20139;-59
2022/11/20 06:07:42;;;;;;;10.00;2.47;;;7.90;99.90;;;;;;5086207;28;20134;-58
2022/11/20 06:10:09;;;;;;;9.65;2.03;;;7.90;99.90;;;;;;5091646;28;20482;-59
2022/11/20 06:12:36;;;;;;;7.97;1.92;;;7.90;99.90;;;;;;5102187;28;20062;-59
2022/11/20 06:15:04;;;;;;;3.25;1.70;;;7.90;99.90;;;;;;5092400;28;20048;-58
2022/11/20 06:17:30;;;;;;;5.72;2.03;;;7.90;99.90;;;;;;5099833;28;20047;-60
2022/11/20 06:19:57;;;;;;;5.20;1.98;;;8.00;99.90;;;;;;5095572;28;20055;-58
2022/11/20 06:22:24;;;;;;;5.97;2.20;;;8.10;99.90;;;;;;5079529;28;20502;-59
2022/11/20 06:24:50;;;;;;;5.03;2.10;;;8.10;99.90;;;;;;5097923;28;20127;-59
2022/11/20 06:27:17;;;;;;;3.92;1.70;;;8.10;99.90;;;;;;5095198;28;20637;-59
2022/11/20 06:29:44;;;;;;;9.65;2.10;;;8.10;99.90;;;;;;5100162;28;20050;-59
2022/11/20 06:32:10;;;;;;;4.78;1.65;;;8.10;99.90;;;;;;5092490;28;20044;-59
2022/11/20 06:34:37;;;;;;;9.60;2.05;;;8.10;99.90;;;;;;5102426;28;20044;-59
2022/11/20 06:37:04;;;;;;;10.40;2.35;;;8.10;99.90;;;;;;5092903;28;20074;-59
2022/11/20 06:39:30;;;;;;;6.10;2.10;;;8.10;99.90;;;;;;5102634;28;20063;-59
2022/11/20 06:41:57;;;;;;;5.70;1.67;;;8.20;99.90;;;;;;5091726;28;20052;-58
2022/11/20 06:44:25;;;;;;;5.72;2.63;;;8.10;99.90;;;;;;5103280;28;20410;-59
2022/11/20 06:46:52;;;;;;;4.13;1.52;;;8.10;99.90;;;;;;5091061;28;20054;-59
2022/11/20 06:49:18;;;;;;;8.02;2.08;;;8.20;99.90;;;;;;5102654;28;20043;-59
2022/11/20 06:51:45;;;;;;;5.43;1.63;;;8.20;99.90;;;;;;5089346;28;20047;-56
2022/11/20 06:54:12;;;;;;;3.47;1.60;;;8.20;99.90;;;;;;5093704;28;20147;-58
2022/11/20 06:56:39;;;;;;;8.48;2.67;;;8.20;99.90;;;;;;5089690;28;20047;-57
2022/11/20 06:59:06;;;;;;;5.90;1.92;;;8.20;99.90;;;;;;5080992;28;20055;-59
2022/11/20 07:01:34;;;;;;;8.40;1.73;;;8.30;99.90;;;;;;5106962;28;20082;-60
2022/11/20 07:04:02;;;;;;;4.10;1.40;;;8.30;99.90;;;;;;5083320;28;20151;-61
2022/11/20 07:06:29;;;;;;;4.32;1.30;;;8.30;99.90;;;;;;5073748;28;20055;-60
2022/11/20 07:08:56;;;;;;;4.72;1.38;;;8.40;99.90;;;;;;5073968;28;20415;-59
2022/11/20 07:11:24;;;;;;;5.05;1.60;;;8.40;99.90;;;;;;5084296;28;20075;-59
2022/11/20 07:13:50;;;;;;;5.22;1.15;;;8.40;99.90;;;;;;5084993;28;20044;-59
2022/11/20 07:16:17;;;;;;;5.80;1.40;;;8.40;99.90;;;;;;5081927;28;20044;-60
2022/11/20 07:18:44;;;;;;;5.80;1.42;;;8.50;99.90;;;;;;5088633;28;20513;-59
2022/11/20 07:21:16;;;;;;;4.13;1.25;;;8.50;99.90;;;;;;5080243;28;20048;-60
2022/11/20 07:23:43;;;;;;;1.52;1.02;;;8.50;99.90;;;;;;5088750;28;20041;-60
2022/11/20 07:26:10;;;;;;;3.42;1.10;;;8.60;99.90;;;;;;5079065;28;20050;-60
2022/11/20 07:28:37;;;;;;;4.15;0.88;;;8.60;99.90;;;;;;5088850;28;20059;-61
2022/11/20 07:31:04;;;;;;;2.90;0.98;;;8.60;99.90;;;;;;5081345;28;20052;-58
2022/11/20 07:33:32;;;;;;;3.05;0.95;;;8.70;99.90;;;;;;5069353;28;20132;-59
2022/11/20 07:35:59;;;;;;;3.22;1.42;;;8.70;99.90;;;;;;5076123;28;20533;-59
2022/11/20 07:38:26;;;;;;;4.40;1.33;;;8.70;99.90;;;;;;5089941;28;20560;-58
2022/11/20 07:41:03;;;;;;;2.42;1.20;;;8.70;99.90;;;;;;5084603;28;20048;-59
2022/11/20 07:43:30;;;;;;;4.25;1.25;;;8.80;99.90;;;;;;5069762;28;20048;-61
2022/11/20 07:45:57;;;;;;;1.85;1.00;;;8.70;99.90;;;;;;5073797;28;20060;-60
2022/11/20 07:48:24;;;;;;;3.88;0.93;;;8.60;99.90;;;;;;5088519;28;20087;-61
2022/11/20 07:50:57;;;;;;;3.83;1.00;;;8.50;99.90;;;;;;5085416;28;20044;-60
2022/11/20 07:53:24;;;;;;;1.57;0.90;;;8.50;99.90;;;;;;5069401;28;20060;-60
2022/11/20 07:55:52;;;;;;;3.72;1.30;;;8.50;99.90;;;;;;5078133;28;20044;-59
2022/11/20 07:58:20;;;;;;;3.25;1.88;;;8.40;99.90;;;;;;5087162;28;20178;-60
2022/11/20 08:00:46;;;;;;;2.72;0.80;;;8.50;99.90;;;;;;5084802;28;20058;-60
2022/11/20 08:03:13;;;;;;;2.00;0.90;;;8.50;99.90;;;;;;5074671;28;20491;-59
2022/11/20 08:05:45;;;;;;;2.78;1.20;;;8.40;99.90;;;;;;5073567;28;20115;-59
2022/11/20 08:08:12;;;;;;;1.98;1.13;;;8.40;99.90;;;;;;5075146;28;20052;-60
2022/11/20 08:10:42;;;;;;;1.70;1.00;;;8.40;99.90;;;;;;5072036;28;20040;-59
2022/11/20 08:15:54;;;;;;;2.67;1.10;;;8.50;99.90;;;;;;5072582;28;20094;-59
2022/11/20 08:18:21;;;;;;;1.77;1.10;;;8.50;99.90;;;;;;5077217;28;20529;-59
2022/11/20 08:20:58;;;;;;;1.52;0.98;;;8.40;99.90;;;;;;5071290;28;20407;-59
2022/11/20 08:23:25;;;;;;;2.35;1.15;;;8.50;99.90;;;;;;5078564;28;20127;-59
2022/11/20 08:25:51;;;;;;;4.63;1.33;;;8.50;99.90;;;;;;5070038;28;20525;-60
2022/11/20 08:28:18;;;;;;;1.73;1.10;;;8.50;99.90;;;;;;5083001;28;20326;-59
2022/11/20 08:30:48;;;;;;;3.03;1.38;;;8.40;99.90;;;;;;5078068;28;20080;-60
2022/11/20 08:33:15;;;;;;;4.45;1.48;;;8.40;99.90;;;;;;5080005;28;20058;-61
2022/11/20 08:35:42;;;;;;;5.18;1.40;;;8.40;99.90;;;;;;5078580;28;20040;-59
2022/11/20 08:38:09;;;;;;;1.92;1.10;;;8.50;99.90;;;;;;5082139;28;20442;-60
2022/11/20 08:40:36;;;;;;;2.72;1.20;;;8.40;99.90;;;;;;5077875;28;20094;-60
2022/11/20 08:43:03;;;;;;;1.80;1.08;;;8.50;99.90;;;;;;4735400;28;10000725;-60
2022/11/20 08:45:29;;;;;;;3.50;1.40;;;8.40;99.90;;;;;;5065813;28;20439;-61
2022/11/20 08:48:04;;;;;;;2.47;1.38;;;8.40;99.90;;;;;;5078274;28;20155;-60
2022/11/20 08:50:33;;;;;;;3.58;1.63;;;8.40;99.90;;;;;;5065943;28;20049;-61
2022/11/20 08:53:04;;;;;;;3.35;1.13;;;8.50;99.90;;;;;;5076635;28;20052;-60
2022/11/20 08:55:31;;;;;;;1.58;1.30;;;8.50;99.90;;;;;;5066031;28;20515;-59
2022/11/20 08:57:58;;;;;;;2.03;1.48;;;8.40;99.90;;;;;;5070181;28;20079;-60
2022/11/20 09:00:24;;;;;;;2.90;1.80;;;8.40;99.90;;;;;;5082245;28;20048;-61
2022/11/20 09:02:52;;;;;;;1.90;1.70;;;8.40;99.90;;;;;;5077369;28;20048;-62
2022/11/20 09:05:18;;;;;;;1.98;1.65;;;8.40;99.90;;;;;;5087741;28;20059;-59
2022/11/20 09:07:45;;;;;;;8.45;3.78;;;8.30;99.90;;;;;;5079870;28;20050;-60
2022/11/20 09:10:12;;;;;;;3.25;1.48;;;8.40;99.90;;;;;;5096602;28;20047;-59
2022/11/20 09:12:57;;;;;;;10.38;2.08;;;8.40;99.90;;;;;;5096775;28;20438;-60
2022/11/20 09:15:24;;;;;;;4.60;2.28;;;8.40;99.90;;;;;;5092937;28;20048;-60
2022/11/20 09:17:59;;;;;;;3.50;1.88;;;8.40;99.90;;;;;;5071786;28;20044;-61
2022/11/20 09:20:28;;;;;;;4.53;2.38;;;8.40;99.90;;;;;;5096944;28;20082;-61
2022/11/20 09:22:55;;;;;;;5.72;2.05;;;8.40;99.90;;;;;;5103147;28;20063;-61
2022/11/20 09:25:22;;;;;;;7.10;1.88;;;8.40;99.90;;;;;;5094686;28;20047;-59
2022/11/20 09:27:57;;;;;;;4.28;1.98;;;8.40;99.90;;;;;;5103636;28;20048;-60
2022/11/20 09:30:24;;;;;;;7.55;2.35;;;8.40;99.90;;;;;;5095065;28;20054;-62
2022/11/20 09:32:51;;;;;;;8.18;1.75;;;8.40;99.90;;;;;;5091267;28;20510;-61
2022/11/20 09:35:18;;;;;;;4.50;2.22;;;8.40;99.90;;;;;;5082687;28;20110;-59
2022/11/20 09:37:45;;;;;;;7.53;2.65;;;8.50;99.90;;;;;;5089721;28;20143;-60
2022/11/20 09:40:26;;;;;;;5.93;2.47;;;8.50;99.90;;;;;;5101843;28;20155;-60
2022/11/20 09:43:20;;;;;;;5.47;3.00;;;8.50;99.90;;;;;;5089606;28;20047;-61
2022/11/20 09:46:12;;;;;;;6.50;3.60;;;8.50;99.90;;;;;;5088579;28;20065;-61
2022/11/20 09:49:09;;;;;;;14.85;3.63;;;8.50;99.90;;;;;;4046185;28;10000373;-59
2022/11/20 09:51:54;;;;;;;12.43;3.55;;;8.50;99.90;;;;;;5101971;28;20051;-60
2022/11/20 09:54:26;;;;;;;10.43;4.10;;;8.50;99.90;;;;;;5105229;28;20474;-64
2022/11/20 09:56:55;;;;;;;7.13;2.88;;;8.50;99.90;;;;;;4737777;28;10000118;-60
2022/11/20 09:59:42;;;;;;;11.00;3.55;;;8.50;99.90;;;;;;4728260;28;10000101;-60
2022/11/20 10:02:18;;;;;;;6.30;3.92;;;8.40;99.90;;;;;;5084634;28;20051;-58
2022/11/20 10:04:52;;;;;;;8.52;2.88;;;8.40;99.90;;;;;;4711767;28;10000223;-60
2022/11/20 10:07:25;;;;;;;7.57;2.55;;;8.50;99.90;;;;;;4374322;28;10000934;-60
2022/11/20 10:09:59;;;;;;;9.93;2.90;;;8.50;99.90;;;;;;4683834;28;10000242;-62
2022/11/20 10:12:58;;;;;;;8.77;3.65;;;8.40;99.90;;;;;;4360727;28;10000680;-60
2022/11/20 10:15:35;;;;;;;5.72;2.58;;;8.40;99.90;;;;;;5027228;28;20049;-61
2022/11/20 10:18:21;;;;;;;11.75;3.95;;;8.40;99.90;;;;;;5041115;28;20587;-61
2022/11/20 10:21:11;;;;;;;10.90;2.92;;;8.40;99.90;;;;;;4703967;28;9999797;-61
2022/11/20 10:23:48;;;;;;;14.27;3.90;;;8.40;99.90;;;;;;5050941;28;20121;-61
2022/11/20 10:26:44;;;;;;;12.32;3.10;;;8.50;99.90;;;;;;5042411;28;20061;-61
2022/11/20 10:29:18;;;;;;;13.30;3.97;;;8.50;99.90;;;;;;5046186;28;20040;-59
2022/11/20 10:31:46;;;;;;;;;;;8.60;99.90;;;;;;5055163;28;20049;-60
2022/11/20 10:34:32;;;;;;;11.55;2.60;;;8.60;99.90;;;;;;5050650;28;19931;-61
2022/11/20 10:37:11;;;;;;;10.27;2.97;;;8.60;99.90;;;;;;5053026;28;20064;-61
2022/11/20 10:39:43;;;;;;;13.68;3.60;;;8.60;99.90;;;;;;5053505;28;20053;-61
2022/11/20 10:42:12;;;;;;;15.45;3.17;;;8.70;99.90;;;;;;5054306;28;20055;-60
2022/11/20 10:47:35;;;;;;;15.48;2.90;;;8.80;99.90;;;;;;4695544;28;9999755;-60
2022/11/20 10:50:08;;;;;;;13.35;3.17;;;8.80;99.90;;;;;;5055733;28;20053;-60
2022/11/20 10:52:56;;;;;;;16.00;2.90;;;8.90;99.90;;;;;;4704509;28;10000680;-59
2022/11/20 10:55:22;;;;;;;8.80;2.90;;;9.10;99.90;;;;;;5048843;28;20063;-60
2022/11/20 10:58:04;;;;;;;15.23;2.95;;;8.90;99.90;;;;;;5056283;28;20160;-60
2022/11/20 11:00:32;;;;;;;11.00;2.70;;;9.00;99.90;;;;;;5058687;28;20041;-60
2022/11/20 11:03:02;;;;;;;11.93;3.05;;;9.00;99.90;;;;;;5052675;28;20463;-60
2022/11/20 11:05:54;;;;;;;9.48;3.13;;;9.00;99.90;;;;;;5063075;28;20542;-60
2022/11/20 11:08:20;;;;;;;15.65;2.72;;;9.10;99.90;;;;;;5043719;28;20498;-60
2022/11/20 11:10:59;;;;;;;24.25;3.72;;;9.20;99.90;;;;;;5065069;28;20163;-60
2022/11/20 11:13:27;;;;;;;13.43;2.72;;;9.20;99.90;;;;;;5062344;28;20473;-61
2022/11/20 11:15:54;;;;;;;13.48;2.33;;;9.30;99.90;;;;;;5066174;28;20044;-62
2022/11/20 11:18:31;;;;;;;19.65;2.65;;;9.30;99.90;;;;;;5059579;28;20048;-61
2022/11/20 11:21:01;;;;;;;11.70;2.20;;;9.40;99.90;;;;;;5065333;28;20086;-60
2022/11/20 11:23:33;;;;;;;18.45;2.42;;;9.40;99.90;;;;;;5055717;28;20045;-60
2022/11/20 11:26:01;;;;;;;16.33;2.67;;;9.50;99.90;;;;;;5061761;28;20071;-60
2022/11/20 11:28:28;;;;;;;12.35;2.60;;;9.50;99.90;;;;;;5059342;28;20061;-61
2022/11/20 11:31:02;;;;;;;17.56;3.73;;;9.50;99.90;;;;;;4995350;28;10001305;-59
2022/11/20 11:33:31;;;;;;;17.08;2.95;;;9.50;99.90;;;;;;5062079;28;20712;-59
2022/11/20 11:36:02;;;;;;;25.90;3.88;;;9.50;99.90;;;;;;4710105;28;10000669;-65
2022/11/20 11:38:42;;;;;;;11.73;2.40;;;9.50;99.90;;;;;;5062605;28;20048;-61
2022/11/20 11:41:20;;;;;;;21.25;3.92;;;9.60;99.90;;;;;;5049591;28;20045;-59
2022/11/20 11:46:38;;;;;;;20.58;3.35;;;9.60;99.90;;;;;;5046272;28;20420;-59
2022/11/20 11:49:04;;;;;;;15.25;3.03;;;9.60;99.90;;;;;;5048896;28;20059;-60
2022/11/20 11:51:41;;;;;;;24.25;3.67;;;9.70;99.90;;;;;;5063142;28;20547;-59
2022/11/20 11:54:20;;;;;;;13.35;2.85;;;9.80;99.90;;;;;;5057766;28;20083;-61
2022/11/20 11:56:47;;;;;;;20.90;3.50;;;9.80;99.90;;;;;;4359763;28;10000406;-60
2022/11/20 11:59:42;;;;;;;17.50;4.57;;;9.90;99.90;;;;;;4700202;28;10000145;-63
2022/11/20 12:02:23;;;;;;;20.23;2.95;;;9.90;99.90;;;;;;5051410;28;20052;-60
2022/11/20 12:04:56;;;;;;;14.45;3.88;;;10.00;99.90;;;;;;5050967;28;20056;-61
2022/11/20 12:07:43;;;;;;;20.95;3.95;;;10.10;99.90;;;;;;5063484;28;20055;-61
2022/11/20 12:10:22;;;;;;;23.15;3.92;;;10.10;99.90;;;;;;5051213;28;20066;-60
2022/11/20 12:12:54;;;;;;;15.98;3.63;;;10.20;99.90;;;;;;5046016;28;20048;-60
2022/11/20 12:15:28;;;;;;;17.20;3.75;;;10.20;99.90;;;;;;5053965;28;20052;-61
2022/11/20 12:17:55;;;;;;;;;;;10.30;99.90;;;;;;5030351;28;20470;-60
2022/11/20 12:20:24;;;;;;;21.45;3.58;;;10.30;99.90;;;;;;5054222;28;19925;-60
2022/11/20 12:22:54;;;;;;;28.05;5.38;;;10.40;99.90;;;;;;5046721;28;20048;-59
2022/11/20 12:25:24;;;;;;;20.15;3.47;;;10.40;99.90;;;;;;5058256;28;20052;-60
2022/11/20 12:28:24;;;;;;;26.40;3.67;;;10.50;99.90;;;;;;4695334;28;10000434;-60
2022/11/20 12:30:59;;;;;;;12.18;2.78;;;10.50;99.90;;;;;;5029374;28;20059;-60
2022/11/20 12:33:52;;;;;;;26.67;3.40;;;10.50;99.90;;;;;;5051280;28;20052;-60
2022/11/20 12:36:36;;;;;;;21.73;4.18;;;10.40;99.90;;;;;;5057359;28;20064;-60
2022/11/20 12:39:21;;;;;;;27.45;6.68;;;10.40;99.90;;;;;;5045069;28;20048;-60
2022/11/20 12:45:10;;;;;;;21.30;3.90;;;10.40;99.90;;;;;;5060289;28;20117;-61
2022/11/20 12:47:48;;;;;;;37.88;9.00;;;10.50;99.90;;;;;;5050994;28;20060;-59
2022/11/20 12:50:36;;;;;;;23.10;4.10;;;10.50;99.90;;;;;;5048882;28;20257;-60
2022/11/20 12:53:41;;;;;;;21.95;4.07;;;10.50;99.90;;;;;;5062112;28;20059;-60
2022/11/20 12:56:38;;;;;;;25.65;3.67;;;10.60;99.90;;;;;;5060718;28;20515;-61
2022/11/20 12:59:27;;;;;;;19.27;4.28;;;10.60;99.90;;;;;;5045602;28;20049;-61
2022/11/20 13:02:05;;;;;;;19.58;4.07;;;10.60;99.90;;;;;;5056814;28;20052;-60
2022/11/20 13:05:23;;;;;;;15.93;2.72;;;10.60;99.90;;;;;;5043318;28;20049;-59
2022/11/20 13:07:51;;;;;;;16.70;3.15;;;10.60;99.90;;;;;;5028983;28;20059;-59
2022/11/20 13:10:29;;;;;;;24.25;3.65;;;10.70;99.90;;;;;;5055986;28;20059;-60
2022/11/20 13:13:07;;;;;;;27.00;5.05;;;10.70;99.90;;;;;;5049228;28;20049;-59
2022/11/20 13:15:42;;;;;;;15.55;2.60;;;10.70;99.90;;;;;;5032885;28;20067;-60
2022/11/20 13:18:09;;;;;;;19.55;3.55;;;10.60;99.90;;;;;;5043783;28;20056;-60
2022/11/20 13:20:40;;;;;;;14.40;3.72;;;10.70;99.90;;;;;;5018896;28;20156;-60
2022/11/20 13:23:07;;;;;;;18.63;2.92;;;10.70;99.90;;;;;;5053643;28;20049;-60
2022/11/20 13:25:35;;;;;;;13.98;3.03;;;10.70;99.90;;;;;;5053014;28;20159;-59